Time;durP1;ratioP1;P1;durP2;ratioP2;P2;SDS_P1;SDS_P2;PMS_P1;PMS_P2;Temp;Humidity;BMP_temperature;BMP_pressure;BME280_temperature;BME280_humidity;BME280_pressure;Samples;Min_cycle;Max_cycle;Signal;HPM_P1;HPM_P2
2021/11/18 00:01:07;;;;;;;0.40;0.30;;;;;;;7.06;100.00;101634.94;5114145;28;20537;-70
2021/11/18 00:03:34;;;;;;;0.40;0.30;;;;;;;7.09;100.00;101630.94;5114785;28;20438;-69
2021/11/18 00:06:00;;;;;;;0.40;0.30;;;;;;;7.08;100.00;101637.38;5114714;28;20443;-70
2021/11/18 00:08:27;;;;;;;0.40;0.30;;;;;;;7.08;100.00;101632.81;5114672;28;20435;-70
2021/11/18 00:10:56;;;;;;;0.40;0.30;;;;;;;7.09;100.00;101644.41;5114653;28;20442;-70
2021/11/18 00:13:26;;;;;;;0.40;0.30;;;;;;;7.12;100.00;101638.50;5114359;28;20955;-70
2021/11/18 00:15:53;;;;;;;0.40;0.30;;;;;;;7.07;100.00;101641.13;5114872;28;20538;-70
2021/11/18 00:18:22;;;;;;;6.27;5.77;;;;;;;7.11;100.00;101634.19;5114466;28;20436;-69
2021/11/18 00:20:52;;;;;;;0.40;0.30;;;;;;;7.10;100.00;101635.25;5114192;28;20479;-70
2021/11/18 00:23:20;;;;;;;0.40;0.30;;;;;;;7.11;100.00;101636.06;5114433;28;20457;-70
2021/11/18 00:25:47;;;;;;;0.40;0.30;;;;;;;7.09;100.00;101639.03;5114127;28;20443;-70
2021/11/18 00:28:15;;;;;;;2.33;0.97;;;;;;;7.11;100.00;101642.28;5114279;28;20459;-70
2021/11/18 00:30:42;;;;;;;0.40;0.20;;;;;;;7.08;100.00;101642.75;5113928;28;20435;-70
2021/11/18 00:33:09;;;;;;;0.40;0.20;;;;;;;7.07;100.00;101641.94;5113868;28;20843;-70
2021/11/18 00:35:37;;;;;;;0.40;0.27;;;;;;;7.06;100.00;101645.72;5113868;28;20936;-70
2021/11/18 00:38:04;;;;;;;0.40;0.30;;;;;;;7.07;100.00;101651.91;5114038;28;20464;-70
2021/11/18 00:40:34;;;;;;;0.40;0.30;;;;;;;7.00;100.00;101652.13;5113713;28;20479;-70
2021/11/18 00:43:01;;;;;;;0.40;0.23;;;;;;;7.00;100.00;101667.47;5114070;28;20486;-70
2021/11/18 00:45:29;;;;;;;0.40;0.20;;;;;;;6.94;100.00;101668.44;5114017;28;20462;-70
2021/11/18 00:47:57;;;;;;;0.40;0.27;;;;;;;6.91;100.00;101668.97;5113910;28;20463;-70
2021/11/18 00:50:25;;;;;;;0.40;0.30;;;;;;;6.89;100.00;101655.72;5114329;28;20447;-70
2021/11/18 00:52:52;;;;;;;1.07;1.07;;;;;;;6.92;100.00;101667.91;5114204;28;20444;-70
2021/11/18 00:55:20;;;;;;;0.40;0.30;;;;;;;6.89;100.00;101663.00;5113898;28;20853;-70
2021/11/18 00:57:46;;;;;;;0.40;0.40;;;;;;;6.90;100.00;101672.69;5113778;28;20455;-70
2021/11/18 01:00:16;;;;;;;0.40;0.30;;;;;;;6.87;100.00;101671.34;5113725;28;20528;-70
2021/11/18 01:02:45;;;;;;;0.40;0.30;;;;;;;6.86;100.00;101683.16;5113791;28;20435;-70
2021/11/18 01:05:13;;;;;;;0.40;0.30;;;;;;;6.82;100.00;101677.47;5113775;28;20496;-70
2021/11/18 01:07:39;;;;;;;0.40;0.30;;;;;;;6.83;100.00;101684.47;5113410;28;20463;-70
2021/11/18 01:10:07;;;;;;;0.40;0.30;;;;;;;6.86;100.00;101685.84;5112763;28;20463;-70
2021/11/18 01:12:34;;;;;;;0.40;0.30;;;;;;;6.88;100.00;101689.13;5113603;28;20439;-70
2021/11/18 01:15:00;;;;;;;0.40;0.30;;;;;;;6.89;100.00;101689.94;5113595;28;20451;-70
2021/11/18 01:17:26;;;;;;;0.40;0.30;;;;;;;6.86;100.00;101691.22;5113603;28;20483;-70
2021/11/18 01:19:54;;;;;;;0.40;0.20;;;;;;;6.88;100.00;101693.69;5113540;28;20442;-70
2021/11/18 01:22:21;;;;;;;0.40;0.30;;;;;;;6.77;100.00;101690.03;5113623;28;20447;-70
2021/11/18 01:24:47;;;;;;;1.73;1.63;;;;;;;6.76;100.00;101688.41;5113256;28;20921;-70
2021/11/18 01:27:14;;;;;;;0.40;0.30;;;;;;;6.81;100.00;101689.28;5114571;28;20475;-70
2021/11/18 01:29:40;;;;;;;0.40;0.30;;;;;;;6.77;100.00;101685.50;5113498;28;20450;-70
2021/11/18 01:32:07;;;;;;;0.40;0.30;;;;;;;6.76;100.00;101688.41;5113468;28;20431;-70
2021/11/18 01:34:33;;;;;;;0.40;0.20;;;;;;;6.75;100.00;101695.69;5113478;28;20489;-70
2021/11/18 01:37:01;;;;;;;0.40;0.30;;;;;;;6.73;100.00;101691.59;5113396;28;20462;-69
2021/11/18 01:39:28;;;;;;;0.40;0.30;;;;;;;6.79;100.00;101698.69;5113446;28;20505;-70
2021/11/18 01:41:55;;;;;;;0.40;0.30;;;;;;;6.77;100.00;101698.94;5113308;28;20483;-69
2021/11/18 01:44:28;;;;;;;0.40;0.30;;;;;;;6.77;100.00;101712.41;5113451;28;20474;-71
2021/11/18 01:46:55;;;;;;;0.40;0.30;;;;;;;6.79;100.00;101704.88;5113317;28;20459;-72
2021/11/18 01:49:21;;;;;;;0.40;0.30;;;;;;;6.79;100.00;101712.97;5113375;28;20442;-73
2021/11/18 01:51:51;;;;;;;0.40;0.20;;;;;;;6.80;100.00;101717.28;5113444;28;20440;-73
2021/11/18 01:54:21;;;;;;;0.40;0.30;;;;;;;6.81;100.00;101716.22;5113314;28;20455;-73
2021/11/18 01:56:48;;;;;;;0.40;0.23;;;;;;;6.78;100.00;101719.44;5113206;28;20456;-73
2021/11/18 01:59:17;;;;;;;0.40;0.30;;;;;;;6.76;100.00;101720.72;5112958;28;20932;-73
2021/11/18 02:01:47;;;;;;;0.40;0.30;;;;;;;6.75;100.00;101719.91;5113155;28;20479;-72
2021/11/18 02:04:17;;;;;;;0.40;0.30;;;;;;;6.71;100.00;101718.78;5113214;28;20439;-73
2021/11/18 02:06:46;;;;;;;0.40;0.30;;;;;;;6.72;100.00;101720.38;5112830;28;20990;-73
2021/11/18 02:09:15;;;;;;;0.40;0.30;;;;;;;6.74;100.00;101710.22;5113158;28;20443;-73
2021/11/18 02:11:45;;;;;;;0.40;0.30;;;;;;;6.75;100.00;101719.91;5113140;28;20448;-73
2021/11/18 02:14:14;;;;;;;0.40;0.23;;;;;;;6.76;100.00;101720.72;5112869;28;20954;-72
2021/11/18 02:16:42;;;;;;;0.40;0.30;;;;;;;6.77;100.00;101720.50;5112993;28;20468;-73
2021/11/18 02:19:10;;;;;;;0.40;0.30;;;;;;;6.80;100.00;101727.25;5113045;28;20488;-73
2021/11/18 02:21:39;;;;;;;0.40;0.30;;;;;;;6.78;100.00;101722.13;5112937;28;20479;-73
2021/11/18 02:24:15;;;;;;;0.40;0.30;;;;;;;6.78;100.00;101730.19;5113018;28;20446;-73
2021/11/18 02:26:41;;;;;;;0.50;0.40;;;;;;;6.76;100.00;101739.56;5116317;28;20474;-72
2021/11/18 02:29:09;;;;;;;0.40;0.20;;;;;;;6.80;100.00;101738.81;5116687;28;20447;-73
2021/11/18 02:31:38;;;;;;;0.40;0.20;;;;;;;6.82;100.00;101741.28;5116295;28;20847;-73
2021/11/18 02:34:09;;;;;;;0.40;0.20;;;;;;;6.84;100.00;101741.84;5116562;28;20435;-73
2021/11/18 02:36:37;;;;;;;0.43;0.40;;;;;;;6.83;100.00;101738.34;5116515;28;20475;-73
2021/11/18 02:39:05;;;;;;;0.53;0.53;;;;;;;6.86;100.00;101736.19;5116752;28;20440;-73
2021/11/18 02:41:32;;;;;;;0.40;0.30;;;;;;;6.82;100.00;101736.72;5116301;28;20487;-72
2021/11/18 02:43:58;;;;;;;0.40;0.30;;;;;;;6.81;100.00;101747.72;5116377;28;20436;-72
2021/11/18 02:46:25;;;;;;;0.40;0.30;;;;;;;6.78;100.00;101743.66;5116260;28;20459;-73
2021/11/18 02:48:52;;;;;;;0.40;0.30;;;;;;;6.81;100.00;101753.91;5116256;28;20435;-73
2021/11/18 02:51:21;;;;;;;0.40;0.30;;;;;;;6.84;100.00;101755.31;5116205;28;20462;-73
2021/11/18 02:53:49;;;;;;;0.43;0.40;;;;;;;6.88;100.00;101744.88;5115806;28;20485;-73
2021/11/18 02:56:16;;;;;;;0.40;0.30;;;;;;;6.92;100.00;101740.63;5115882;28;20820;-72
2021/11/18 02:58:43;;;;;;;0.40;0.30;;;;;;;6.93;100.00;101755.72;5116030;28;20443;-73
2021/11/18 03:01:13;;;;;;;0.40;0.30;;;;;;;6.90;100.00;101761.56;5115949;28;20480;-73
2021/11/18 03:03:40;;;;;;;0.40;0.30;;;;;;;6.88;100.00;101761.03;5116000;28;20439;-73
2021/11/18 03:06:07;;;;;;;0.40;0.20;;;;;;;6.83;100.00;101754.50;5115879;28;20435;-72
2021/11/18 03:08:34;;;;;;;0.40;0.30;;;;;;;6.86;100.00;101741.59;5115566;28;20850;-73
2021/11/18 03:11:02;;;;;;;0.40;0.20;;;;;;;6.80;100.00;101746.91;5115793;28;20444;-72
2021/11/18 03:13:31;;;;;;;0.40;0.30;;;;;;;6.82;100.00;101742.09;5115761;28;20447;-73
2021/11/18 03:15:58;;;;;;;0.40;0.30;;;;;;;6.82;100.00;101731.34;5115692;28;20450;-73
2021/11/18 03:18:24;;;;;;;0.40;0.30;;;;;;;6.79;100.00;101741.78;5115691;28;20463;-72
2021/11/18 03:20:52;;;;;;;0.40;0.30;;;;;;;6.81;100.00;101745.03;5115552;28;20440;-73
2021/11/18 03:23:19;;;;;;;0.40;0.30;;;;;;;6.83;100.00;101730.25;5115728;28;20860;-73
2021/11/18 03:25:47;;;;;;;0.40;0.30;;;;;;;6.80;100.00;101727.25;5115108;28;20972;-72
2021/11/18 03:28:15;;;;;;;0.40;0.30;;;;;;;6.78;100.00;101734.78;5115482;28;20466;-71
2021/11/18 03:30:46;;;;;;;0.40;0.23;;;;;;;6.74;100.00;101755.97;5115116;28;20929;-71
2021/11/18 03:33:16;;;;;;;0.40;0.20;;;;;;;6.69;100.00;101747.84;5114425;28;20467;-71
2021/11/18 03:35:43;;;;;;;0.40;0.30;;;;;;;6.71;100.00;101740.31;5114835;28;20412;-71
2021/11/18 03:38:11;;;;;;;0.40;0.30;;;;;;;6.68;100.00;101735.41;5114415;28;20467;-71
2021/11/18 03:40:39;;;;;;;0.40;0.20;;;;;;;6.71;100.00;101743.00;5114950;28;21000;-71
2021/11/18 03:43:09;;;;;;;0.40;0.20;;;;;;;6.74;100.00;101747.91;5114885;28;20936;-71
2021/11/18 03:45:37;;;;;;;0.40;0.30;;;;;;;6.75;100.00;101741.44;5115249;28;20486;-71
2021/11/18 03:48:05;;;;;;;0.40;0.20;;;;;;;6.78;100.00;101732.88;5114791;28;20569;-72
2021/11/18 03:50:31;;;;;;;0.40;0.30;;;;;;;6.77;100.00;101730.41;5115127;28;20435;-72
2021/11/18 03:52:58;;;;;;;0.40;0.30;;;;;;;6.73;100.00;101738.19;5115016;28;20439;-72
2021/11/18 03:55:25;;;;;;;0.40;0.30;;;;;;;6.78;100.00;101745.53;5115030;28;20436;-72
2021/11/18 03:57:53;;;;;;;0.40;0.30;;;;;;;6.79;100.00;101757.94;5114541;28;20972;-72
2021/11/18 04:00:23;;;;;;;0.40;0.20;;;;;;;6.85;100.00;101756.13;5114601;28;20444;-71
2021/11/18 04:02:51;;;;;;;0.40;0.20;;;;;;;6.88;100.00;101744.88;5114789;28;20474;-71
2021/11/18 04:05:18;;;;;;;0.40;0.23;;;;;;;6.87;100.00;101760.22;5114808;28;20439;-71
2021/11/18 04:07:45;;;;;;;0.40;0.20;;;;;;;6.85;100.00;101762.31;5114673;28;20455;-71
2021/11/18 04:10:14;;;;;;;0.40;0.30;;;;;;;6.86;100.00;101777.41;5114832;28;20439;-71
2021/11/18 04:12:42;;;;;;;0.40;0.20;;;;;;;6.85;100.00;101772.28;5114932;28;20436;-71
2021/11/18 04:15:10;;;;;;;0.40;0.30;;;;;;;6.86;100.00;101776.59;5114564;28;20837;-71
2021/11/18 04:17:37;;;;;;;0.40;0.30;;;;;;;6.86;100.00;101765.81;5114475;28;20463;-71
2021/11/18 04:20:07;;;;;;;0.40;0.30;;;;;;;6.88;100.00;101771.78;5114536;28;20451;-71
2021/11/18 04:22:34;;;;;;;0.40;0.30;;;;;;;6.85;100.00;101783.88;5114404;28;20459;-70
2021/11/18 04:25:00;;;;;;;0.40;0.30;;;;;;;6.86;100.00;101782.78;5114381;28;20459;-71
2021/11/18 04:27:27;;;;;;;0.40;0.30;;;;;;;6.88;100.00;101774.50;5114093;28;20513;-70
2021/11/18 04:29:53;;;;;;;0.40;0.30;;;;;;;6.86;100.00;101781.97;5114329;28;20446;-71
2021/11/18 04:32:23;;;;;;;0.50;0.30;;;;;;;6.92;100.00;101789.09;5114224;28;20450;-70
2021/11/18 04:34:50;;;;;;;0.40;0.30;;;;;;;6.92;100.00;101781.03;5114273;28;20450;-71
2021/11/18 04:37:18;;;;;;;0.40;0.20;;;;;;;6.90;100.00;101783.13;5114127;28;20463;-71
2021/11/18 04:39:45;;;;;;;0.40;0.30;;;;;;;6.87;100.00;101784.44;5113863;28;20436;-71
2021/11/18 04:42:14;;;;;;;0.80;0.80;;;;;;;6.88;100.00;101779.88;5114091;28;20479;-71
2021/11/18 04:44:41;;;;;;;0.40;0.30;;;;;;;6.88;100.00;101782.56;5113796;28;20937;-71
2021/11/18 04:47:12;;;;;;;0.40;0.30;;;;;;;6.85;100.00;101786.56;5113676;28;20463;-71
2021/11/18 04:49:39;;;;;;;0.50;0.30;;;;;;;6.89;100.00;101784.19;5113100;28;20830;-70
2021/11/18 04:52:07;;;;;;;0.40;0.30;;;;;;;6.88;100.00;101777.19;5113903;28;20442;-71
2021/11/18 04:54:35;;;;;;;0.40;0.30;;;;;;;6.88;100.00;101779.88;5113992;28;20486;-71
2021/11/18 04:57:03;;;;;;;0.40;0.30;;;;;;;6.89;100.00;101774.22;5113269;28;20479;-70
2021/11/18 04:59:30;;;;;;;0.40;0.30;;;;;;;6.91;100.00;101776.69;5113615;28;20937;-70
2021/11/18 05:01:57;;;;;;;0.50;0.30;;;;;;;6.89;100.00;101773.41;5113733;28;20481;-70
2021/11/18 05:04:24;;;;;;;0.40;0.20;;;;;;;6.93;100.00;101785.34;5113763;28;20444;-70
2021/11/18 05:06:50;;;;;;;0.40;0.30;;;;;;;6.92;100.00;101781.81;5113657;28;20467;-70
2021/11/18 05:09:17;;;;;;;0.40;0.20;;;;;;;6.93;100.00;101777.25;5113758;28;20836;-70
2021/11/18 05:11:46;;;;;;;0.40;0.30;;;;;;;6.88;100.00;101783.38;5113711;28;20892;-71
2021/11/18 05:14:13;;;;;;;0.40;0.30;;;;;;;6.87;100.00;101776.38;5113665;28;20504;-71
2021/11/18 05:16:40;;;;;;;0.40;0.27;;;;;;;6.88;100.00;101791.47;5113598;28;20569;-71
2021/11/18 05:19:06;;;;;;;0.50;0.50;;;;;;;6.85;100.00;101791.94;5113060;28;20448;-71
2021/11/18 05:21:33;;;;;;;0.40;0.20;;;;;;;6.89;100.00;101787.69;5112346;28;20494;-70
2021/11/18 05:24:04;;;;;;;0.40;0.30;;;;;;;6.89;100.00;101785.00;5113625;28;20435;-70
2021/11/18 05:26:31;;;;;;;0.40;0.20;;;;;;;6.88;100.00;101793.34;5113149;28;20479;-70
2021/11/18 05:28:59;;;;;;;0.40;0.20;;;;;;;6.81;100.00;101798.88;5113510;28;20443;-70
2021/11/18 05:31:30;;;;;;;0.40;0.30;;;;;;;6.77;100.00;101793.19;5113514;28;20435;-71
2021/11/18 05:33:56;;;;;;;0.40;0.30;;;;;;;6.76;100.00;101796.13;5113520;28;20420;-70
2021/11/18 05:36:23;;;;;;;0.40;0.30;;;;;;;6.72;100.00;101800.34;5113421;28;20564;-70
2021/11/18 05:38:50;;;;;;;0.40;0.30;;;;;;;6.69;100.00;101799.00;5113354;28;20439;-71
2021/11/18 05:41:17;;;;;;;0.50;0.30;;;;;;;6.67;100.00;101806.47;5113413;28;20439;-71
2021/11/18 05:43:44;;;;;;;0.40;0.37;;;;;;;6.69;100.00;101812.44;5113419;28;20485;-70
2021/11/18 05:46:13;;;;;;;0.40;0.20;;;;;;;6.63;100.00;101799.13;5113344;28;20436;-70
2021/11/18 05:48:40;;;;;;;0.40;0.30;;;;;;;6.54;100.00;101794.16;5113367;28;20432;-71
2021/11/18 05:51:08;;;;;;;0.40;0.30;;;;;;;6.55;100.00;101805.72;5113315;28;20435;-71
2021/11/18 05:53:38;;;;;;;0.40;0.30;;;;;;;6.59;100.00;101801.50;5113304;28;20439;-70
2021/11/18 05:56:07;;;;;;;0.40;0.30;;;;;;;6.57;100.00;101800.94;5113057;28;20462;-71
2021/11/18 05:58:35;;;;;;;0.43;0.40;;;;;;;6.57;100.00;101798.25;5113264;28;20448;-71
2021/11/18 06:01:04;;;;;;;0.40;0.20;;;;;;;6.57;100.00;101800.94;5116310;28;20432;-72
2021/11/18 06:03:32;;;;;;;0.40;0.30;;;;;;;6.60;100.00;101808.53;5117136;28;20479;-72
2021/11/18 06:05:58;;;;;;;0.40;0.30;;;;;;;6.57;100.00;101814.38;5116957;28;20440;-70
2021/11/18 06:08:25;;;;;;;0.40;0.30;;;;;;;6.58;100.00;101811.44;5117001;28;20465;-72
2021/11/18 06:10:51;;;;;;;0.40;0.30;;;;;;;6.57;100.00;101809.00;5117064;28;20450;-72
2021/11/18 06:13:18;;;;;;;0.40;0.30;;;;;;;6.49;100.00;101807.53;5117078;28;20427;-72
2021/11/18 06:15:45;;;;;;;0.40;0.30;;;;;;;6.49;100.00;101804.84;5116988;28;20444;-71
2021/11/18 06:18:12;;;;;;;0.40;0.30;;;;;;;6.51;100.00;101804.59;5115578;28;20454;-70
2021/11/18 06:20:40;;;;;;;0.40;0.30;;;;;;;6.51;100.00;101805.41;5116681;28;20446;-69
2021/11/18 06:23:12;;;;;;;0.40;0.30;;;;;;;6.50;100.00;101809.16;5116438;28;20474;-70
2021/11/18 06:25:39;;;;;;;0.40;0.30;;;;;;;6.50;100.00;101819.09;5116380;28;20451;-70
2021/11/18 06:28:08;;;;;;;0.40;0.30;;;;;;;6.47;100.00;101827.69;5116425;28;20459;-69
2021/11/18 06:30:37;;;;;;;0.40;0.30;;;;;;;6.46;100.00;101831.41;5116615;28;20814;-69
2021/11/18 06:33:04;;;;;;;0.40;0.30;;;;;;;6.54;100.00;101831.00;5116578;28;20442;-69
2021/11/18 06:35:30;;;;;;;0.40;0.30;;;;;;;6.55;100.00;101838.88;5116222;28;20936;-70
2021/11/18 06:37:58;;;;;;;0.40;0.23;;;;;;;6.60;100.00;101840.00;5116455;28;20455;-70
2021/11/18 06:40:26;;;;;;;0.40;0.20;;;;;;;6.59;100.00;101833.78;5116497;28;20435;-70
2021/11/18 06:42:52;;;;;;;0.40;0.23;;;;;;;6.57;100.00;101834.03;5116333;28;20475;-70
2021/11/18 06:45:22;;;;;;;0.40;0.30;;;;;;;6.56;100.00;101839.69;5116418;28;20513;-70
2021/11/18 06:47:49;;;;;;;0.40;0.30;;;;;;;6.55;100.00;101843.41;5116271;28;20547;-70
2021/11/18 06:50:16;;;;;;;0.40;0.30;;;;;;;6.54;100.00;101847.16;5116039;28;20936;-70
2021/11/18 06:52:42;;;;;;;0.40;0.30;;;;;;;6.46;100.00;101848.41;5115806;28;20435;-70
2021/11/18 06:55:11;;;;;;;0.40;0.23;;;;;;;6.49;100.00;101865.94;5115904;28;20933;-70
2021/11/18 06:57:38;;;;;;;0.40;0.30;;;;;;;6.48;100.00;101864.28;5116117;28;20465;-69
2021/11/18 07:00:05;;;;;;;0.40;0.30;;;;;;;6.41;100.00;101856.34;5116065;28;20444;-69
2021/11/18 07:02:32;;;;;;;0.40;0.30;;;;;;;6.47;100.00;101851.91;5115941;28;20474;-69
2021/11/18 07:04:58;;;;;;;0.40;0.30;;;;;;;6.52;100.00;101854.69;5116079;28;20459;-69
2021/11/18 07:07:25;;;;;;;0.40;0.20;;;;;;;6.54;100.00;101858.75;5114918;28;20996;-69
2021/11/18 07:09:51;;;;;;;0.40;0.30;;;;;;;6.55;100.00;101859.56;5115687;28;20858;-69
2021/11/18 07:12:21;;;;;;;0.40;0.30;;;;;;;6.54;100.00;101857.94;5115585;28;20435;-69
2021/11/18 07:14:50;;;;;;;0.40;0.30;;;;;;;6.58;100.00;101864.47;5115983;28;20444;-69
2021/11/18 07:17:17;;;;;;;0.40;0.30;;;;;;;6.63;100.00;101861.88;5115725;28;20466;-69
2021/11/18 07:19:44;;;;;;;0.40;0.30;;;;;;;6.68;100.00;101861.13;5115693;28;20452;-69
2021/11/18 07:22:11;;;;;;;0.40;0.30;;;;;;;6.74;100.00;101868.25;5115459;28;20487;-69
2021/11/18 07:24:37;;;;;;;2.13;2.00;;;;;;;6.81;100.00;101858.94;5115636;28;20808;-69
2021/11/18 07:27:04;;;;;;;0.40;0.27;;;;;;;6.86;100.00;101870.84;5116559;28;20478;-68
2021/11/18 07:29:32;;;;;;;0.40;0.30;;;;;;;6.91;100.00;101879.03;5115506;28;20443;-69
2021/11/18 07:31:59;;;;;;;0.40;0.30;;;;;;;6.93;100.00;101887.69;5115518;28;20439;-69
2021/11/18 07:34:26;;;;;;;0.40;0.30;;;;;;;6.99;100.00;101878.63;5115391;28;20446;-70
2021/11/18 07:36:53;;;;;;;0.40;0.30;;;;;;;7.06;100.00;101890.06;5115343;28;20458;-70
2021/11/18 07:39:22;;;;;;;0.50;0.50;;;;;;;7.13;100.00;101892.56;5115372;28;20439;-68
2021/11/18 07:41:49;;;;;;;0.40;0.30;;;;;;;7.19;100.00;101888.91;5115296;28;20443;-69
2021/11/18 07:44:16;;;;;;;4.53;2.33;;;;;;;7.25;100.00;101886.03;5115104;28;20479;-71
2021/11/18 07:46:44;;;;;;;0.40;0.30;;;;;;;7.33;100.00;101893.69;5115060;28;20455;-71
2021/11/18 07:49:10;;;;;;;0.40;0.30;;;;;;;7.36;100.00;101895.09;5115094;28;20436;-70
2021/11/18 07:51:38;;;;;;;0.40;0.30;;;;;;;7.44;100.00;101892.00;5115048;28;20427;-69
2021/11/18 07:54:05;;;;;;;0.40;0.30;;;;;;;7.52;100.00;101901.50;5115045;28;20440;-71
2021/11/18 07:56:32;;;;;;;0.40;0.30;;;;;;;7.57;100.00;101899.72;5114538;28;20459;-71
2021/11/18 07:58:59;;;;;;;0.40;0.30;;;;;;;7.62;100.00;101904.38;5115124;28;20444;-73
2021/11/18 08:01:26;;;;;;;0.40;0.30;;;;;;;7.64;100.00;101910.31;5114587;28;20932;-72
2021/11/18 08:03:54;;;;;;;0.60;0.60;;;;;;;7.66;100.00;101902.81;5114745;28;20487;-70
2021/11/18 08:06:22;;;;;;;0.40;0.33;;;;;;;7.72;100.00;101906.41;5114015;28;20466;-70
2021/11/18 08:08:51;;;;;;;0.40;0.30;;;;;;;7.76;100.00;101902.13;5114619;28;20439;-69
2021/11/18 08:11:20;;;;;;;0.40;0.30;;;;;;;7.75;100.00;101900.50;5114719;28;20432;-70
2021/11/18 08:13:47;;;;;;;0.40;0.20;;;;;;;7.81;100.00;101903.00;5114621;28;20440;-70
2021/11/18 08:16:14;;;;;;;0.40;0.30;;;;;;;7.90;100.00;101897.19;5114472;28;20455;-70
2021/11/18 08:18:41;;;;;;;0.40;0.30;;;;;;;7.93;100.00;101913.69;5114347;28;20517;-70
2021/11/18 08:21:12;;;;;;;0.40;0.33;;;;;;;8.00;100.00;101914.31;5114206;28;20439;-69
2021/11/18 08:23:40;;;;;;;0.40;0.30;;;;;;;8.04;100.00;101912.75;5113827;28;20468;-69
2021/11/18 08:26:09;;;;;;;0.40;0.30;;;;;;;8.12;100.00;101908.78;5114100;28;20456;-70
2021/11/18 08:28:35;;;;;;;0.40;0.30;;;;;;;8.18;100.00;101893.47;5114380;28;20509;-69
2021/11/18 08:31:03;;;;;;;0.67;0.67;;;;;;;8.20;100.00;101902.94;5114307;28;20439;-70
2021/11/18 08:33:29;;;;;;;0.40;0.30;;;;;;;8.26;100.00;101901.94;5114263;28;20435;-72
2021/11/18 08:35:56;;;;;;;0.70;0.70;;;;;;;8.38;100.00;101909.13;5114113;28;20447;-71
2021/11/18 08:38:24;;;;;;;0.97;0.97;;;;;;;8.40;100.00;101915.06;5113924;28;20850;-70
2021/11/18 08:40:53;;;;;;;12.57;11.40;;;;;;;8.41;100.00;101908.59;5114127;28;20446;-70
2021/11/18 08:43:21;;;;;;;0.40;0.30;;;;;;;8.32;100.00;101911.75;5114100;28;20479;-70
2021/11/18 08:45:48;;;;;;;0.40;0.30;;;;;;;8.31;100.00;101910.09;5114095;28;20457;-70
2021/11/18 08:48:15;;;;;;;0.40;0.30;;;;;;;8.31;100.00;101907.38;5113811;28;20466;-70
2021/11/18 08:50:43;;;;;;;0.40;0.30;;;;;;;8.27;100.00;101916.25;5113250;28;20890;-71
2021/11/18 08:53:12;;;;;;;0.40;0.30;;;;;;;8.29;100.00;101906.03;5114030;28;20436;-71
2021/11/18 08:55:41;;;;;;;0.40;0.20;;;;;;;8.29;100.00;101909.53;5113876;28;20439;-71
2021/11/18 08:58:10;;;;;;;0.40;0.30;;;;;;;8.35;100.00;101921.19;5113821;28;20459;-71
2021/11/18 09:00:41;;;;;;;0.40;0.30;;;;;;;8.40;100.00;101920.47;5113530;28;20452;-71
2021/11/18 09:03:08;;;;;;;0.40;0.30;;;;;;;8.44;100.00;101922.41;5113666;28;20467;-70
2021/11/18 09:05:35;;;;;;;0.40;0.30;;;;;;;8.43;100.00;101928.06;5113744;28;20500;-72
2021/11/18 09:08:02;;;;;;;0.50;0.30;;;;;;;8.42;100.00;101929.97;5113606;28;20459;-71
2021/11/18 09:10:29;;;;;;;0.40;0.30;;;;;;;8.42;100.00;101932.66;5113764;28;20432;-72
2021/11/18 09:12:57;;;;;;;0.40;0.30;;;;;;;8.48;100.00;101925.41;5113713;28;20443;-72
2021/11/18 09:15:26;;;;;;;0.40;0.30;;;;;;;8.56;100.00;101930.38;5113662;28;20443;-72
2021/11/18 09:17:54;;;;;;;0.40;0.30;;;;;;;8.70;100.00;101930.78;5113528;28;20827;-72
2021/11/18 09:20:21;;;;;;;0.40;0.30;;;;;;;8.82;100.00;101934.97;5113668;28;20516;-72
2021/11/18 09:22:48;;;;;;;0.40;0.30;;;;;;;8.94;100.00;101942.91;5113518;28;20501;-73
2021/11/18 09:25:18;;;;;;;0.40;0.30;;;;;;;9.09;100.00;101934.13;5113395;28;20439;-72
2021/11/18 09:27:47;;;;;;;0.40;0.30;;;;;;;9.12;100.00;101940.88;5113494;28;20470;-72
2021/11/18 09:30:17;;;;;;;0.40;0.30;;;;;;;9.13;100.00;101929.81;5113516;28;20439;-73
2021/11/18 09:32:44;;;;;;;0.40;0.30;;;;;;;9.24;100.00;101928.00;5113469;28;20436;-73
2021/11/18 09:35:15;;;;;;;0.40;0.30;;;;;;;9.26;100.00;101932.09;5115202;28;20443;-72
2021/11/18 09:37:41;;;;;;;0.40;0.30;;;;;;;9.30;100.00;101941.31;5117841;28;20464;-72
2021/11/18 09:40:12;;;;;;;0.40;0.30;;;;;;;9.40;100.00;101931.66;5117655;28;20439;-72
2021/11/18 09:42:49;;;;;;;0.40;0.30;;;;;;;9.44;100.00;101933.56;5117530;28;20454;-73
2021/11/18 09:45:22;;;;;;;0.40;0.30;;;;;;;9.57;100.00;101921.50;5117498;28;20420;-73
2021/11/18 09:48:28;;;;;;;0.40;0.30;;;;;;;9.65;100.00;101922.88;5117411;28;20565;-73
2021/11/18 09:51:04;;;;;;;0.40;0.23;;;;;;;9.63;100.00;101914.22;5117348;28;20769;-71
2021/11/18 09:53:56;;;;;;;0.40;0.20;;;;;;;9.67;100.00;101905.31;5117072;28;20427;-72
2021/11/18 09:56:29;;;;;;;0.40;0.30;;;;;;;9.75;99.91;101909.41;5117158;28;20570;-71
2021/11/18 09:59:25;;;;;;;0.40;0.30;;;;;;;9.81;99.61;101902.94;5116882;28;20830;-71
2021/11/18 10:02:18;;;;;;;0.40;0.30;;;;;;;9.80;99.70;101904.84;5115183;28;20459;-71
2021/11/18 10:04:49;;;;;;;0.40;0.27;;;;;;;9.84;100.00;101911.34;5117131;28;20467;-71
2021/11/18 10:07:20;;;;;;;0.40;0.30;;;;;;;9.97;99.83;101914.66;5117048;28;20458;-71
2021/11/18 10:09:57;;;;;;;0.40;0.30;;;;;;;10.02;98.63;101906.56;5117073;28;20428;-71
2021/11/18 10:12:31;;;;;;;0.40;0.30;;;;;;;10.04;97.92;101904.41;5117172;28;20411;-71
2021/11/18 10:15:02;;;;;;;0.40;0.30;;;;;;;10.08;98.50;101903.59;5117046;28;20465;-71
2021/11/18 10:17:34;;;;;;;0.40;0.30;;;;;;;10.14;97.93;101901.75;5116859;28;20466;-72
2021/11/18 10:20:05;;;;;;;2.90;2.60;;;;;;;10.22;98.41;101906.63;5116933;28;20423;-71
2021/11/18 10:22:35;;;;;;;0.40;0.27;;;;;;;10.19;97.30;101904.47;5116933;28;20838;-71
2021/11/18 10:25:02;;;;;;;0.40;0.30;;;;;;;10.23;97.59;101902.06;5116734;28;20490;-72
2021/11/18 10:27:33;;;;;;;0.40;0.30;;;;;;;10.27;97.19;101912.13;5116636;28;20474;-72
2021/11/18 10:30:09;;;;;;;0.40;0.30;;;;;;;10.31;97.08;101918.63;5116758;28;20792;-71
2021/11/18 10:32:49;;;;;;;0.40;0.30;;;;;;;10.41;96.82;101911.59;5116515;28;20423;-72
2021/11/18 10:35:20;;;;;;;0.40;0.20;;;;;;;10.47;95.91;101929.50;5116528;28;20518;-71
2021/11/18 10:37:49;;;;;;;0.40;0.30;;;;;;;10.42;95.48;101927.59;5116041;28;20830;-71
2021/11/18 10:40:21;;;;;;;0.40;0.30;;;;;;;10.48;95.84;101931.13;5116392;28;20466;-72
2021/11/18 10:42:50;;;;;;;0.40;0.30;;;;;;;10.52;95.40;101924.91;5116291;28;20420;-72
2021/11/18 10:45:34;;;;;;;0.40;0.30;;;;;;;10.54;95.96;101930.88;5115553;28;20478;-72
2021/11/18 10:48:06;;;;;;;0.40;0.30;;;;;;;10.68;95.39;101933.88;5116284;28;20460;-72
2021/11/18 10:50:37;;;;;;;0.40;0.30;;;;;;;10.74;95.37;101918.44;5115846;28;20788;-72
2021/11/18 10:53:14;;;;;;;0.40;0.30;;;;;;;10.73;94.47;101909.50;5115746;28;21002;-72
2021/11/18 10:55:43;;;;;;;0.50;0.40;;;;;;;10.72;94.63;101901.66;5115807;28;20842;-72
2021/11/18 10:58:14;;;;;;;0.40;0.30;;;;;;;10.77;94.19;101905.16;5115932;28;20466;-72
2021/11/18 11:00:46;;;;;;;0.40;0.30;;;;;;;10.79;93.54;101903.00;5116003;28;20428;-72
2021/11/18 11:03:30;;;;;;;0.40;0.30;;;;;;;10.82;94.75;101893.50;5115904;28;20499;-72
2021/11/18 11:06:24;;;;;;;0.40;0.30;;;;;;;10.85;93.59;101888.38;5115537;28;20434;-72
2021/11/18 11:08:53;;;;;;;0.40;0.30;;;;;;;10.94;92.99;101890.53;5067912;28;20456;-72
2021/11/18 11:11:29;;;;;;;0.40;0.30;;;;;;;10.98;92.68;101889.72;5115615;28;20444;-72
2021/11/18 11:14:24;;;;;;;0.40;0.30;;;;;;;11.03;92.11;101881.59;5115793;28;20426;-72
2021/11/18 11:17:29;;;;;;;0.40;0.30;;;;;;;11.05;92.05;101881.31;5115335;28;20852;-72
2021/11/18 11:20:04;;;;;;;0.40;0.30;;;;;;;11.07;90.97;101887.28;5115604;28;20431;-72
2021/11/18 11:22:37;;;;;;;0.40;0.20;;;;;;;11.03;91.40;101883.50;5115506;28;20791;-72
2021/11/18 11:25:29;;;;;;;0.40;0.30;;;;;;;11.14;91.47;101868.03;5115398;28;20467;-72
2021/11/18 11:28:11;;;;;;;0.40;0.30;;;;;;;11.22;91.03;101857.44;5115469;28;20467;-72
2021/11/18 11:30:47;;;;;;;0.40;0.30;;;;;;;11.18;90.78;101863.69;5115518;28;20430;-71
2021/11/18 11:33:20;;;;;;;0.40;0.30;;;;;;;11.14;90.78;101881.56;5115450;28;20473;-71